Time;durP1;ratioP1;P1;durP2;ratioP2;P2;SDS_P1;SDS_P2;PMS_P1;PMS_P2;Temp;Humidity;BMP_temperature;BMP_pressure;BME280_temperature;BME280_humidity;BME280_pressure;Samples;Min_cycle;Max_cycle;Signal;HPM_P1;HPM_P2
2023/03/15 00:02:22;;;;;;;5.67;1.47;;;;;;;1.87;72.54;100134.66;4989777;28;20603;-73
2023/03/15 00:04:48;;;;;;;3.93;0.97;;;;;;;1.86;72.74;100130.31;4985161;28;20592;-74
2023/03/15 00:07:15;;;;;;;7.10;1.63;;;;;;;1.86;72.23;100138.19;4995675;28;20699;-73
2023/03/15 00:09:41;;;;;;;7.40;1.40;;;;;;;1.88;72.39;100136.38;4990356;28;20575;-73
2023/03/15 00:12:08;;;;;;;3.03;1.03;;;;;;;1.87;72.12;100139.91;4993629;28;20321;-73
2023/03/15 00:14:36;;;;;;;8.57;1.23;;;;;;;1.88;72.83;100143.41;4990336;28;20204;-73
2023/03/15 00:17:02;;;;;;;7.63;1.50;;;;;;;1.83;72.97;100151.44;4983306;28;20207;-73
2023/03/15 00:19:29;;;;;;;8.00;1.70;;;;;;;1.84;72.67;100147.03;4988493;28;20653;-73
2023/03/15 00:21:56;;;;;;;8.50;1.90;;;;;;;1.83;72.74;100155.84;4986685;28;20258;-72
2023/03/15 00:24:22;;;;;;;5.30;1.27;;;;;;;1.84;72.87;100162.78;4987136;28;20698;-73
2023/03/15 00:26:49;;;;;;;6.67;1.30;;;;;;;1.81;72.46;100163.75;4983981;28;20217;-73
2023/03/15 00:29:15;;;;;;;10.90;1.77;;;;;;;1.80;73.10;100158.56;4980402;28;20210;-73
2023/03/15 00:31:43;;;;;;;6.33;1.97;;;;;;;1.79;72.69;100170.84;4986450;28;20228;-73
2023/03/15 00:34:12;;;;;;;6.43;1.60;;;;;;;1.79;72.76;100170.84;4987512;28;20215;-73
2023/03/15 00:36:42;;;;;;;9.60;1.20;;;;;;;1.80;73.43;100176.94;4987434;28;20731;-73
2023/03/15 00:39:09;;;;;;;6.17;1.47;;;;;;;1.77;72.87;100175.31;4985280;28;20207;-74
2023/03/15 00:41:35;;;;;;;4.53;1.37;;;;;;;1.77;73.02;100180.56;4989617;28;20234;-73
2023/03/15 00:44:03;;;;;;;6.70;1.70;;;;;;;1.79;73.08;100175.25;4984935;28;20708;-73
2023/03/15 00:46:29;;;;;;;5.37;1.50;;;;;;;1.78;73.18;100182.28;4988299;28;20299;-73
2023/03/15 00:48:57;;;;;;;4.90;1.60;;;;;;;1.80;73.01;100192.69;4986089;28;20563;-73
2023/03/15 00:51:24;;;;;;;4.63;1.33;;;;;;;1.82;72.69;100191.72;4988801;28;20636;-73
2023/03/15 00:53:52;;;;;;;4.90;1.40;;;;;;;1.80;72.46;100193.53;4983650;28;20215;-73
2023/03/15 00:56:20;;;;;;;7.83;1.23;;;;;;;1.79;73.00;100197.13;4986906;28;20259;-73
2023/03/15 00:58:47;;;;;;;6.90;1.30;;;;;;;1.79;72.82;100197.13;4988367;28;20221;-73
2023/03/15 01:01:16;;;;;;;11.47;1.70;;;;;;;1.80;72.81;100190.91;4987363;28;20727;-73
2023/03/15 01:03:44;;;;;;;6.97;1.77;;;;;;;1.80;72.88;100197.94;4988141;28;20230;-73
2023/03/15 01:06:14;;;;;;;7.03;1.53;;;;;;;1.81;72.40;100202.28;4991810;28;20212;-74
2023/03/15 01:08:41;;;;;;;7.23;1.83;;;;;;;1.81;72.58;100200.50;4985426;28;20685;-73
2023/03/15 01:11:11;;;;;;;6.73;1.03;;;;;;;1.79;72.44;100197.13;4989171;28;20243;-73
2023/03/15 01:13:39;;;;;;;5.80;1.30;;;;;;;1.79;72.48;100191.88;4994686;28;20195;-73
2023/03/15 01:16:06;;;;;;;5.97;1.50;;;;;;;1.82;72.27;100193.50;4995447;28;20293;-73
2023/03/15 01:18:33;;;;;;;7.33;1.30;;;;;;;1.80;72.91;100195.31;4996963;28;20210;-73
2023/03/15 01:21:00;;;;;;;4.93;1.07;;;;;;;1.81;72.58;100194.41;4989032;28;20735;-73
2023/03/15 01:23:27;;;;;;;3.63;1.27;;;;;;;1.83;72.79;100189.97;4991439;28;20206;-73
2023/03/15 01:25:55;;;;;;;5.73;1.10;;;;;;;1.83;72.74;100197.84;4989041;28;20536;-73
2023/03/15 01:28:21;;;;;;;4.10;1.60;;;;;;;1.84;72.43;100197.78;4991497;28;20691;-73
2023/03/15 01:30:51;;;;;;;8.50;1.90;;;;;;;1.81;72.18;100203.13;4982855;28;20235;-73
2023/03/15 01:33:17;;;;;;;5.93;1.10;;;;;;;1.82;72.25;100198.75;4982225;28;20279;-74
2023/03/15 01:35:44;;;;;;;4.30;1.43;;;;;;;1.84;71.97;100204.81;4992170;28;20234;-73
2023/03/15 01:38:11;;;;;;;5.80;1.17;;;;;;;1.83;72.20;100190.81;4982823;28;20207;-73
2023/03/15 01:40:42;;;;;;;5.43;1.13;;;;;;;1.88;71.84;100194.16;4993283;28;20227;-73
2023/03/15 01:43:16;;;;;;;6.23;1.47;;;;;;;1.87;72.11;100204.72;4989043;28;20216;-73
2023/03/15 01:45:56;;;;;;;6.10;1.10;;;;;;;1.88;71.49;100186.28;4988639;28;20219;-73
2023/03/15 01:48:27;;;;;;;6.93;1.17;;;;;;;1.88;71.82;100204.66;4983927;28;20203;-73
2023/03/15 01:50:55;;;;;;;7.57;1.57;;;;;;;1.90;72.18;100205.47;4985222;28;20294;-73
2023/03/15 01:53:24;;;;;;;4.63;1.40;;;;;;;1.89;71.21;100208.13;4985527;28;20688;-73
2023/03/15 01:55:54;;;;;;;4.20;0.97;;;;;;;1.90;71.30;100210.72;4987698;28;20754;-73
2023/03/15 01:58:23;;;;;;;6.17;1.13;;;;;;;1.92;71.57;100206.28;4987291;28;20286;-73
2023/03/15 02:00:52;;;;;;;6.47;1.53;;;;;;;1.91;71.32;100201.94;4990818;28;20330;-73
2023/03/15 02:03:23;;;;;;;5.17;1.73;;;;;;;1.92;71.81;100201.03;4980376;28;20207;-73
2023/03/15 02:05:54;;;;;;;5.80;1.13;;;;;;;1.93;71.81;100204.50;4998244;28;20222;-73
2023/03/15 02:08:25;;;;;;;2.43;1.03;;;;;;;1.92;71.68;100208.91;4991988;28;20203;-73
2023/03/15 02:10:57;;;;;;;6.07;1.10;;;;;;;1.94;71.37;100206.22;4994318;28;20227;-73
2023/03/15 02:13:25;;;;;;;4.07;1.40;;;;;;;1.94;70.96;100212.31;4984087;28;20558;-73
2023/03/15 02:15:52;;;;;;;4.97;1.40;;;;;;;1.98;70.98;100202.53;4986223;28;20586;-73
2023/03/15 02:18:19;;;;;;;2.07;1.00;;;;;;;2.02;70.88;100196.28;4989885;28;20230;-72
2023/03/15 02:20:55;;;;;;;3.83;1.23;;;;;;;2.04;70.80;100207.59;4989553;28;20224;-73
2023/03/15 02:23:23;;;;;;;4.73;0.97;;;;;;;2.06;70.65;100209.25;4986697;28;20691;-73
2023/03/15 02:25:57;;;;;;;6.80;1.43;;;;;;;2.06;70.40;100211.03;4983680;28;20359;-73
2023/03/15 02:28:26;;;;;;;7.07;1.53;;;;;;;2.11;70.18;100209.09;4984997;28;20214;-74
2023/03/15 02:30:52;;;;;;;8.07;1.73;;;;;;;2.13;69.70;100201.16;4985064;28;20258;-73
2023/03/15 02:33:23;;;;;;;6.17;1.40;;;;;;;2.14;69.40;100216.03;4983832;28;20202;-72
2023/03/15 02:35:50;;;;;;;4.67;1.40;;;;;;;2.16;69.84;100214.16;4984309;28;20227;-73
2023/03/15 02:38:16;;;;;;;6.77;1.80;;;;;;;2.19;69.67;100224.56;4985323;28;20259;-73
2023/03/15 02:40:45;;;;;;;3.90;1.10;;;;;;;2.21;69.45;100222.75;4984636;28;20224;-73
2023/03/15 02:43:16;;;;;;;7.07;1.33;;;;;;;2.23;68.96;100232.31;4984014;28;20219;-73
2023/03/15 02:45:45;;;;;;;4.50;1.60;;;;;;;2.25;69.49;100234.88;4982019;28;20211;-73
2023/03/15 02:48:13;;;;;;;6.33;1.83;;;;;;;2.26;69.10;100241.84;4987605;28;20208;-73
2023/03/15 02:50:39;;;;;;;10.67;1.23;;;;;;;2.26;69.57;100247.09;4984575;28;20220;-73
2023/03/15 02:53:06;;;;;;;7.63;1.20;;;;;;;2.27;69.90;100241.78;4987684;28;20223;-73
2023/03/15 02:55:33;;;;;;;7.77;1.47;;;;;;;2.28;69.97;100242.66;4981566;28;20278;-73
2023/03/15 02:58:00;;;;;;;3.43;1.33;;;;;;;2.29;69.48;100252.25;4988360;28;20204;-73
2023/03/15 03:00:27;;;;;;;9.27;1.93;;;;;;;2.27;70.83;100240.94;4984577;28;20231;-73
2023/03/15 03:02:55;;;;;;;4.50;1.43;;;;;;;2.27;70.79;100244.41;4983760;28;20215;-73
2023/03/15 03:05:22;;;;;;;3.40;1.27;;;;;;;2.30;70.49;100256.59;4989390;28;20215;-73
2023/03/15 03:07:49;;;;;;;3.47;1.40;;;;;;;2.32;70.49;100260.88;4993720;28;20210;-73
2023/03/15 03:10:18;;;;;;;6.53;1.50;;;;;;;2.34;71.14;100268.69;4989631;28;20263;-73
2023/03/15 03:12:45;;;;;;;8.67;2.00;;;;;;;2.34;71.03;100260.81;4995428;28;20211;-73
2023/03/15 03:15:12;;;;;;;5.77;2.30;;;;;;;2.35;71.51;100267.78;4990637;28;20213;-73
2023/03/15 03:17:38;;;;;;;7.47;2.50;;;;;;;2.35;72.10;100276.53;4980840;28;20247;-73
2023/03/15 03:20:09;;;;;;;6.00;2.03;;;;;;;2.36;72.06;100272.13;4986654;28;20218;-74
2023/03/15 03:22:35;;;;;;;8.90;2.47;;;;;;;2.36;72.61;100282.63;4987844;28;20235;-73
2023/03/15 03:25:02;;;;;;;4.93;1.90;;;;;;;2.34;73.17;100281.81;4986808;28;20250;-73
2023/03/15 03:27:29;;;;;;;9.43;2.90;;;;;;;2.33;73.00;100285.41;4980589;28;20208;-73
2023/03/15 03:29:55;;;;;;;10.27;3.40;;;;;;;2.32;73.29;100292.41;4984114;28;20585;-73
2023/03/15 03:32:22;;;;;;;9.53;3.90;;;;;;;2.28;73.97;100292.56;4984146;28;20204;-73
2023/03/15 03:34:48;;;;;;;7.10;3.80;;;;;;;2.30;74.74;100298.63;4987384;28;20222;-73
2023/03/15 03:37:16;;;;;;;6.47;3.43;;;;;;;2.30;74.68;100312.63;4984034;28;20258;-73
2023/03/15 03:39:43;;;;;;;5.80;3.83;;;;;;;2.28;74.96;100308.34;4981560;28;20211;-73
2023/03/15 03:42:10;;;;;;;7.93;4.37;;;;;;;2.28;75.68;100321.47;4985203;28;20227;-73
2023/03/15 03:44:36;;;;;;;12.50;4.97;;;;;;;2.26;76.40;100323.31;4982160;28;20207;-73
2023/03/15 03:47:03;;;;;;;10.43;4.97;;;;;;;2.25;76.52;100319.81;4986508;28;20207;-73
2023/03/15 03:49:29;;;;;;;8.53;4.73;;;;;;;2.25;76.72;100324.22;4985717;28;20207;-73
2023/03/15 03:51:56;;;;;;;7.83;5.00;;;;;;;2.23;76.55;100332.13;4987807;28;20350;-74
2023/03/15 03:54:24;;;;;;;12.37;5.97;;;;;;;2.22;77.10;100332.19;4990686;28;20207;-73
2023/03/15 03:56:50;;;;;;;10.97;5.27;;;;;;;2.20;77.92;100336.63;4975165;28;20259;-73
2023/03/15 03:59:17;;;;;;;8.30;5.23;;;;;;;2.20;77.96;100340.13;4976160;28;20207;-73
2023/03/15 04:01:44;;;;;;;7.87;5.60;;;;;;;2.18;78.74;100341.09;4983963;28;20281;-73
2023/03/15 04:04:12;;;;;;;8.57;6.30;;;;;;;2.16;78.45;100343.75;4977282;28;20207;-73
2023/03/15 04:06:44;;;;;;;11.57;5.20;;;;;;;2.15;79.16;100343.84;4981981;28;20629;-73
2023/03/15 04:09:11;;;;;;;6.40;5.20;;;;;;;2.13;79.17;100353.53;4985655;28;20211;-74
2023/03/15 04:11:41;;;;;;;12.70;5.83;;;;;;;2.06;80.19;100348.47;4981411;28;20231;-73
2023/03/15 04:14:08;;;;;;;9.30;5.67;;;;;;;2.03;80.78;100350.34;4984320;28;20670;-73
2023/03/15 04:16:34;;;;;;;10.83;6.80;;;;;;;2.01;80.60;100354.78;4987148;28;20640;-73
2023/03/15 04:19:01;;;;;;;10.27;5.93;;;;;;;2.00;80.79;100359.19;4980488;28;20700;-73
2023/03/15 04:21:30;;;;;;;11.37;6.00;;;;;;;1.96;80.76;100360.22;4979009;28;20719;-73
2023/03/15 04:23:57;;;;;;;7.97;5.40;;;;;;;1.97;80.36;100363.69;4989347;28;20581;-72
2023/03/15 04:26:25;;;;;;;8.07;6.00;;;;;;;1.94;81.27;100363.78;4982534;28;20210;-74
2023/03/15 04:28:53;;;;;;;11.30;6.77;;;;;;;1.90;81.25;100370.91;4987025;28;20214;-73
2023/03/15 04:31:19;;;;;;;12.70;6.10;;;;;;;1.87;81.09;100368.38;4982560;28;21028;-73
2023/03/15 04:33:46;;;;;;;8.97;6.10;;;;;;;1.85;81.42;100380.69;4988632;28;20585;-74
2023/03/15 04:36:17;;;;;;;7.43;6.53;;;;;;;1.84;82.47;100399.97;4981314;28;20231;-72
2023/03/15 04:38:45;;;;;;;12.83;6.20;;;;;;;1.80;82.38;100395.72;4987091;28;20215;-73
2023/03/15 04:41:12;;;;;;;11.47;6.37;;;;;;;1.82;82.85;100400.91;4982245;28;20340;-73
2023/03/15 04:43:38;;;;;;;10.87;6.00;;;;;;;1.82;82.65;100399.16;4977721;28;20208;-74
2023/03/15 04:46:07;;;;;;;9.00;6.30;;;;;;;1.81;83.05;100402.69;4982686;28;20202;-73
2023/03/15 04:48:34;;;;;;;10.27;6.53;;;;;;;1.81;82.97;100407.09;4981769;28;20255;-74
2023/03/15 04:51:00;;;;;;;9.00;5.63;;;;;;;1.82;83.37;100407.03;4987976;28;20223;-73
2023/03/15 04:53:27;;;;;;;10.70;5.90;;;;;;;1.80;85.04;100400.09;4980652;28;20208;-73
2023/03/15 04:55:53;;;;;;;8.77;5.57;;;;;;;1.81;84.51;100412.31;4988255;28;20204;-73
2023/03/15 04:58:20;;;;;;;9.37;5.60;;;;;;;1.81;84.64;100421.06;4983776;28;20212;-73
2023/03/15 05:00:47;;;;;;;7.20;4.93;;;;;;;1.83;84.86;100407.91;4984114;28;20246;-73
2023/03/15 05:03:14;;;;;;;8.27;4.80;;;;;;;1.82;84.85;100409.66;4986250;28;20223;-73
2023/03/15 05:05:41;;;;;;;10.13;5.00;;;;;;;1.83;85.14;100419.25;4985787;28;20229;-73
2023/03/15 05:08:07;;;;;;;11.07;5.37;;;;;;;1.84;85.56;100420.13;4985159;28;20577;-73
2023/03/15 05:10:34;;;;;;;6.60;4.67;;;;;;;1.86;85.46;100434.91;4990809;28;20215;-74
2023/03/15 05:13:00;;;;;;;7.10;4.60;;;;;;;1.88;85.34;100432.25;4983166;28;20215;-74
2023/03/15 05:15:27;;;;;;;6.93;4.60;;;;;;;1.90;85.17;100436.56;4977755;28;20635;-72
2023/03/15 05:17:54;;;;;;;7.40;4.53;;;;;;;1.90;84.90;100431.31;4981419;28;20239;-72
2023/03/15 05:20:24;;;;;;;6.07;4.50;;;;;;;1.90;85.50;100439.19;4977077;28;20242;-73
2023/03/15 05:22:51;;;;;;;6.87;3.93;;;;;;;1.90;85.52;100447.06;4976073;28;20200;-73
2023/03/15 05:25:18;;;;;;;5.73;4.87;;;;;;;1.90;86.04;100452.31;4981993;28;20219;-72
2023/03/15 05:27:46;;;;;;;13.17;4.53;;;;;;;1.91;85.80;100448.78;4978188;28;20601;-74
2023/03/15 05:30:14;;;;;;;5.97;5.00;;;;;;;1.94;86.24;100459.19;4990230;28;20631;-73
2023/03/15 05:32:43;;;;;;;8.63;4.40;;;;;;;1.93;85.76;100456.63;4985812;28;20212;-72
2023/03/15 05:35:11;;;;;;;10.40;5.43;;;;;;;1.93;86.22;100460.09;4981151;28;20207;-73
2023/03/15 05:37:39;;;;;;;9.40;5.07;;;;;;;1.93;86.69;100461.88;4982399;28;20231;-73
2023/03/15 05:40:07;;;;;;;5.37;4.67;;;;;;;1.92;86.89;100468.88;4983869;28;20199;-73
2023/03/15 05:42:34;;;;;;;8.57;4.60;;;;;;;1.93;87.07;100477.63;4978593;28;20588;-73
2023/03/15 05:45:00;;;;;;;8.17;4.60;;;;;;;1.93;86.72;100480.25;4991637;28;20242;-73
2023/03/15 05:47:27;;;;;;;7.50;5.10;;;;;;;1.91;86.89;100485.53;4986637;28;20878;-73
2023/03/15 05:49:53;;;;;;;9.63;3.93;;;;;;;1.93;87.62;100489.00;4981924;28;20215;-73
2023/03/15 05:52:20;;;;;;;6.23;3.90;;;;;;;1.94;88.02;100500.34;4991269;28;20219;-73
2023/03/15 05:54:47;;;;;;;6.70;4.10;;;;;;;1.93;87.85;100494.25;4988707;28;20215;-72
2023/03/15 05:57:14;;;;;;;8.13;4.40;;;;;;;1.94;87.99;100498.59;4985504;28;20575;-72
2023/03/15 05:59:40;;;;;;;5.70;3.77;;;;;;;1.95;87.79;100504.69;4993514;28;20211;-73
2023/03/15 06:02:07;;;;;;;5.40;3.80;;;;;;;1.95;88.28;100502.94;4982507;28;20262;-72
2023/03/15 06:04:35;;;;;;;6.17;4.00;;;;;;;1.98;88.11;100513.31;4979191;28;20760;-73
2023/03/15 06:07:01;;;;;;;6.13;3.40;;;;;;;1.99;88.41;100508.94;4987776;28;20199;-73
2023/03/15 06:09:28;;;;;;;4.33;3.57;;;;;;;1.97;88.45;100516.84;4977044;28;20587;-73
2023/03/15 06:11:57;;;;;;;4.60;3.33;;;;;;;1.97;88.49;100519.47;4991749;28;20239;-73
2023/03/15 06:14:24;;;;;;;5.17;3.40;;;;;;;1.99;88.58;100522.06;4985156;28;20310;-72
2023/03/15 06:16:50;;;;;;;8.30;3.23;;;;;;;1.99;88.43;100532.56;4988849;28;20235;-73
2023/03/15 06:19:17;;;;;;;7.70;2.70;;;;;;;1.97;88.97;100527.34;4988402;28;20673;-72
2023/03/15 06:21:43;;;;;;;4.97;2.43;;;;;;;1.98;88.93;100536.09;4987665;28;20877;-72
2023/03/15 06:24:10;;;;;;;4.20;2.90;;;;;;;2.00;88.37;100547.41;4989865;28;20226;-71
2023/03/15 06:26:37;;;;;;;4.07;2.83;;;;;;;2.02;88.96;100549.09;4986711;28;20210;-69
2023/03/15 06:29:05;;;;;;;4.00;3.13;;;;;;;2.04;88.28;100557.81;4982539;28;20739;-72
2023/03/15 06:31:31;;;;;;;7.63;3.60;;;;;;;2.07;88.82;100564.72;4985270;28;20798;-73
2023/03/15 06:33:58;;;;;;;3.73;2.80;;;;;;;2.08;88.90;100569.94;4980328;28;20200;-73
2023/03/15 06:36:24;;;;;;;7.50;3.50;;;;;;;2.12;88.55;100577.75;4981492;28;20230;-70
2023/03/15 06:38:52;;;;;;;6.80;3.03;;;;;;;2.13;89.08;100576.84;4984169;28;20218;-70
2023/03/15 06:41:20;;;;;;;4.80;3.00;;;;;;;2.14;88.33;100568.91;4988611;28;20231;-70
2023/03/15 06:43:46;;;;;;;5.30;2.93;;;;;;;2.16;89.18;100574.94;4987692;28;20214;-71
2023/03/15 06:46:14;;;;;;;4.50;3.10;;;;;;;2.18;88.70;100581.03;4989328;28;20226;-71
2023/03/15 06:48:41;;;;;;;6.60;3.23;;;;;;;2.19;88.60;100584.50;4987930;28;20407;-71
2023/03/15 06:51:08;;;;;;;3.63;3.20;;;;;;;2.20;89.16;100588.88;4987670;28;20234;-71
2023/03/15 06:53:34;;;;;;;4.20;3.40;;;;;;;2.22;88.52;100595.78;4989001;28;20262;-70
2023/03/15 06:56:01;;;;;;;4.73;2.70;;;;;;;2.24;88.96;100601.00;4987792;28;20223;-70
2023/03/15 06:58:27;;;;;;;4.37;3.20;;;;;;;2.26;89.26;100607.09;4982686;28;20223;-70
2023/03/15 07:00:54;;;;;;;4.40;2.90;;;;;;;2.28;88.74;100615.78;4981513;28;20243;-71
2023/03/15 07:03:22;;;;;;;7.30;3.13;;;;;;;2.29;88.92;100610.47;4983563;28;20204;-70
2023/03/15 07:05:51;;;;;;;5.53;3.87;;;;;;;2.32;89.17;100617.41;4986863;28;20215;-71
2023/03/15 07:08:19;;;;;;;5.90;3.20;;;;;;;2.36;88.79;100613.78;4992167;28;20199;-70
2023/03/15 07:10:47;;;;;;;7.17;3.43;;;;;;;2.38;88.36;100617.22;4992461;28;20250;-71
2023/03/15 07:13:14;;;;;;;6.23;4.27;;;;;;;2.40;88.21;100633.81;4982448;28;20266;-70
2023/03/15 07:15:40;;;;;;;6.90;3.80;;;;;;;2.44;88.81;100633.66;4982334;28;20408;-70
2023/03/15 07:18:07;;;;;;;4.63;3.70;;;;;;;2.47;88.31;100639.75;4985713;28;20591;-70
2023/03/15 07:20:35;;;;;;;7.50;4.10;;;;;;;2.50;88.59;100637.88;4981877;28;20223;-71
2023/03/15 07:23:02;;;;;;;4.63;3.67;;;;;;;2.55;89.01;100651.72;4982313;28;20642;-71
2023/03/15 07:25:28;;;;;;;4.33;3.37;;;;;;;2.60;88.61;100646.34;4983768;28;20203;-69
2023/03/15 07:27:54;;;;;;;4.93;3.60;;;;;;;2.65;88.62;100647.06;4984161;28;20215;-71
2023/03/15 07:30:21;;;;;;;6.00;3.90;;;;;;;2.71;88.87;100650.34;4989738;28;20253;-71
2023/03/15 07:32:48;;;;;;;5.43;3.57;;;;;;;2.76;89.22;100651.06;4984973;28;20208;-71
2023/03/15 07:35:15;;;;;;;10.57;4.27;;;;;;;2.83;88.28;100659.66;4983560;28;20618;-71
2023/03/15 07:37:43;;;;;;;4.93;3.60;;;;;;;2.89;88.53;100669.94;4979267;28;20235;-71
2023/03/15 07:40:12;;;;;;;6.50;3.53;;;;;;;2.92;88.29;100666.38;4978866;28;20319;-71
2023/03/15 07:42:39;;;;;;;5.17;3.27;;;;;;;2.95;88.11;100671.53;4978008;28;20204;-71
2023/03/15 07:45:07;;;;;;;4.17;3.77;;;;;;;2.97;88.47;100675.84;4977860;28;20211;-71
2023/03/15 07:47:35;;;;;;;4.10;3.70;;;;;;;2.99;87.87;100673.16;4976188;28;20207;-71
2023/03/15 07:50:02;;;;;;;5.20;3.20;;;;;;;3.00;87.38;100685.41;4983066;28;20200;-71
2023/03/15 07:52:29;;;;;;;5.33;3.63;;;;;;;3.01;87.16;100689.78;4984187;28;20696;-71
2023/03/15 07:54:57;;;;;;;5.57;3.50;;;;;;;3.02;87.05;100696.75;4976466;28;20222;-71
2023/03/15 07:57:23;;;;;;;7.60;4.63;;;;;;;3.02;86.58;100688.88;4980073;28;20231;-71
2023/03/15 07:59:51;;;;;;;4.57;3.60;;;;;;;3.08;86.92;100694.78;4981854;28;20242;-70
2023/03/15 08:02:18;;;;;;;6.17;3.40;;;;;;;3.17;86.28;100687.50;4988137;28;20215;-71
2023/03/15 08:04:44;;;;;;;4.13;2.97;;;;;;;3.29;87.09;100690.59;4980571;28;20219;-72
2023/03/15 08:07:11;;;;;;;5.57;3.13;;;;;;;3.41;86.23;100694.56;4983043;28;20299;-71
2023/03/15 08:09:38;;;;;;;5.57;3.73;;;;;;;3.53;86.26;100688.94;4984167;28;20210;-71
2023/03/15 08:12:07;;;;;;;4.77;2.97;;;;;;;3.69;86.27;100694.53;4982560;28;20226;-71
2023/03/15 08:14:33;;;;;;;3.37;3.07;;;;;;;3.80;85.22;100702.91;4984026;28;20716;-71
2023/03/15 08:17:00;;;;;;;6.23;2.97;;;;;;;3.95;84.83;100704.13;4981015;28;20212;-71
2023/03/15 08:19:26;;;;;;;4.30;2.87;;;;;;;4.09;84.07;100709.81;4988694;28;20226;-71
2023/03/15 08:21:53;;;;;;;4.50;2.80;;;;;;;4.16;83.40;100712.16;4985430;28;20238;-71
2023/03/15 08:24:20;;;;;;;4.17;3.00;;;;;;;4.23;82.70;100712.81;4979584;28;20204;-70
2023/03/15 08:26:46;;;;;;;4.33;2.47;;;;;;;4.31;82.17;100713.34;4988593;28;20212;-71
2023/03/15 08:29:14;;;;;;;4.67;2.57;;;;;;;4.31;80.56;100725.69;4981007;28;20211;-72
2023/03/15 08:31:41;;;;;;;3.13;2.40;;;;;;;4.30;80.10;100732.72;4993935;28;20234;-71
2023/03/15 08:34:07;;;;;;;4.10;2.13;;;;;;;4.29;79.74;100738.09;4988980;28;20235;-70
2023/03/15 08:36:34;;;;;;;4.07;2.20;;;;;;;4.27;79.35;100746.06;4986995;28;20218;-72
2023/03/15 08:39:00;;;;;;;4.00;2.23;;;;;;;4.26;79.11;100744.31;4986182;28;20227;-71
2023/03/15 08:41:27;;;;;;;4.37;1.93;;;;;;;4.29;78.77;100753.91;4989026;28;20226;-72
2023/03/15 08:43:53;;;;;;;4.23;1.80;;;;;;;4.36;77.93;100758.03;4987490;28;20223;-72
2023/03/15 08:46:21;;;;;;;4.27;2.03;;;;;;;4.47;78.03;100756.75;4984414;28;20213;-71
2023/03/15 08:48:48;;;;;;;3.37;2.00;;;;;;;4.56;77.66;100754.66;4984621;28;20239;-72
2023/03/15 08:51:14;;;;;;;3.53;2.10;;;;;;;4.65;77.35;100764.88;4987395;28;20223;-71
2023/03/15 08:53:40;;;;;;;4.70;1.90;;;;;;;4.77;77.46;100770.56;4985649;28;20209;-71
2023/03/15 08:56:08;;;;;;;5.63;2.33;;;;;;;4.92;77.23;100774.41;4992128;28;20202;-72
2023/03/15 08:58:34;;;;;;;4.50;2.33;;;;;;;5.01;76.05;100775.84;4980237;28;20246;-72
2023/03/15 09:01:01;;;;;;;4.90;2.40;;;;;;;5.10;75.72;100775.47;4988297;28;20235;-71
2023/03/15 09:03:31;;;;;;;3.77;2.50;;;;;;;5.16;74.46;100780.53;4984895;28;20208;-69
2023/03/15 09:05:58;;;;;;;7.03;1.93;;;;;;;5.24;74.23;100784.56;4987968;28;20231;-71
2023/03/15 09:08:25;;;;;;;3.23;2.03;;;;;;;5.31;74.22;100787.84;4986505;28;20208;-69
2023/03/15 09:10:54;;;;;;;4.13;2.03;;;;;;;5.39;73.38;100792.78;4989233;28;20242;-71
2023/03/15 09:13:21;;;;;;;6.57;2.07;;;;;;;5.47;73.11;100788.09;4984306;28;20235;-72
2023/03/15 09:15:49;;;;;;;4.10;1.90;;;;;;;5.50;72.47;100793.25;4987017;28;20251;-71
2023/03/15 09:18:16;;;;;;;5.47;1.70;;;;;;;5.56;72.06;100801.75;4992234;28;20843;-69
2023/03/15 09:20:44;;;;;;;3.27;1.50;;;;;;;5.65;71.84;100800.53;4988752;28;20234;-72
2023/03/15 09:23:10;;;;;;;4.30;1.20;;;;;;;5.72;71.38;100798.53;4994340;28;20208;-72
2023/03/15 09:25:37;;;;;;;4.00;1.50;;;;;;;5.81;70.71;100803.41;4990655;28;20796;-72
2023/03/15 09:28:04;;;;;;;3.43;1.40;;;;;;;5.89;70.50;100817.22;4991829;28;20212;-72
2023/03/15 09:30:30;;;;;;;2.17;1.10;;;;;;;5.96;69.97;100812.53;4992982;28;20230;-72
2023/03/15 09:32:57;;;;;;;2.23;1.10;;;;;;;6.07;69.33;100812.97;4991386;28;20214;-72
2023/03/15 09:35:23;;;;;;;3.50;1.13;;;;;;;6.20;69.20;100817.66;4997665;28;20207;-71
2023/03/15 09:37:51;;;;;;;5.37;1.40;;;;;;;6.35;68.64;100831.13;4991081;28;20739;-73
2023/03/15 09:40:21;;;;;;;5.10;1.47;;;;;;;6.37;67.05;100827.50;4991018;28;20239;-71
2023/03/15 09:42:57;;;;;;;8.07;1.80;;;;;;;6.44;67.55;100833.41;4991733;28;20213;-69
2023/03/15 09:45:29;;;;;;;4.23;1.20;;;;;;;6.53;67.15;100827.69;4992012;28;20211;-68
2023/03/15 09:48:04;;;;;;;7.10;1.40;;;;;;;6.65;66.31;100821.84;4988750;28;20208;-69
2023/03/15 09:50:35;;;;;;;8.73;1.60;;;;;;;6.70;65.92;100832.25;4990726;28;20241;-69
2023/03/15 09:53:08;;;;;;;4.07;1.20;;;;;;;6.70;65.49;100827.81;4993254;28;20237;-69
2023/03/15 09:55:42;;;;;;;4.23;1.20;;;;;;;6.74;65.52;100824.09;4987672;28;20212;-72
2023/03/15 09:58:13;;;;;;;5.10;1.13;;;;;;;6.84;65.31;100824.53;4991518;28;20243;-71
2023/03/15 10:00:44;;;;;;;5.17;1.90;;;;;;;6.86;64.84;100834.13;4990230;28;20228;-72
2023/03/15 10:03:18;;;;;;;5.83;1.30;;;;;;;6.85;64.00;100826.25;4992977;28;20222;-69
2023/03/15 10:05:48;;;;;;;7.23;1.37;;;;;;;6.83;63.37;100834.25;4986397;28;20229;-69
2023/03/15 10:08:18;;;;;;;6.20;1.33;;;;;;;6.88;63.39;100829.63;4988933;28;20241;-69
2023/03/15 10:10:50;;;;;;;5.23;1.60;;;;;;;6.95;63.02;100832.88;4981989;28;20253;-68
2023/03/15 10:13:44;;;;;;;4.30;1.30;;;;;;;7.00;62.19;100835.28;4989854;28;20234;-69
2023/03/15 10:16:29;;;;;;;5.53;1.30;;;;;;;7.00;61.02;100832.63;4986820;28;20230;-69
2023/03/15 10:19:05;;;;;;;5.13;1.43;;;;;;;7.00;59.78;100836.16;4992499;28;20635;-69
2023/03/15 10:21:40;;;;;;;7.80;1.20;;;;;;;6.99;58.98;100828.31;4984787;28;20230;-70
2023/03/15 10:24:17;;;;;;;4.20;1.23;;;;;;;7.03;58.74;100830.72;4979796;28;20668;-69
2023/03/15 10:26:44;;;;;;;6.00;1.20;;;;;;;7.09;56.98;100840.19;4989766;28;20647;-69
2023/03/15 10:29:15;;;;;;;5.53;1.37;;;;;;;7.13;56.64;100837.31;4985842;28;20211;-71
2023/03/15 10:31:45;;;;;;;5.03;1.40;;;;;;;7.18;55.84;100842.38;4994563;28;20786;-71
2023/03/15 10:34:13;;;;;;;4.73;1.30;;;;;;;7.25;55.94;100841.19;4990613;28;20277;-72
2023/03/15 10:36:45;;;;;;;5.83;1.10;;;;;;;7.28;55.24;100830.44;4989960;28;20698;-72
2023/03/15 10:39:13;;;;;;;3.23;1.17;;;;;;;7.37;55.65;100840.59;4990621;28;20234;-71
2023/03/15 10:41:42;;;;;;;3.90;1.33;;;;;;;7.48;56.14;100826.88;4987681;28;20223;-71
2023/03/15 10:44:14;;;;;;;7.23;1.13;;;;;;;7.59;55.95;100841.31;4991056;28;20454;-71
2023/03/15 10:46:41;;;;;;;6.30;1.30;;;;;;;7.68;55.55;100834.72;4991908;28;20203;-71
2023/03/15 10:49:12;;;;;;;5.00;1.20;;;;;;;7.73;54.19;100853.03;4992924;28;20199;-71
2023/03/15 10:51:42;;;;;;;7.97;0.97;;;;;;;7.63;52.53;100853.50;4990642;28;20594;-71
2023/03/15 10:54:16;;;;;;;2.30;0.90;;;;;;;7.55;52.69;100854.78;4992413;28;20233;-71
2023/03/15 10:56:47;;;;;;;3.93;0.97;;;;;;;7.53;52.98;100864.59;4993915;28;20467;-70
2023/03/15 10:59:19;;;;;;;4.20;1.07;;;;;;;7.47;52.82;100870.19;4994124;28;20230;-70
2023/03/15 11:01:48;;;;;;;4.43;1.00;;;;;;;7.39;53.15;100859.94;4989200;28;20707;-69
2023/03/15 11:04:17;;;;;;;5.13;1.43;;;;;;;7.31;52.96;100876.22;4989658;28;20203;-69
2023/03/15 11:06:47;;;;;;;4.77;1.30;;;;;;;7.20;53.47;100870.53;4979809;28;20665;-70
2023/03/15 11:09:16;;;;;;;4.10;0.87;;;;;;;7.14;54.32;100869.97;4990536;28;20673;-71
2023/03/15 11:12:02;;;;;;;7.03;1.80;;;;;;;7.09;54.34;100877.25;4985132;28;20224;-72
2023/03/15 11:14:34;;;;;;;6.03;1.10;;;;;;;7.01;55.73;100876.72;4984789;28;20708;-72
2023/03/15 11:17:01;;;;;;;5.17;1.47;;;;;;;6.94;55.80;100874.38;4983428;28;20206;-72
2023/03/15 11:19:30;;;;;;;3.87;1.10;;;;;;;6.92;56.15;100881.53;4984976;28;20231;-72
2023/03/15 11:21:59;;;;;;;4.67;1.00;;;;;;;6.93;57.25;100880.59;4991613;28;20246;-72
2023/03/15 11:24:29;;;;;;;5.37;0.90;;;;;;;6.99;57.65;100876.78;4989242;28;20212;-72
2023/03/15 11:27:00;;;;;;;3.50;0.73;;;;;;;7.02;57.45;100868.72;4992460;28;20210;-72
2023/03/15 11:29:30;;;;;;;3.97;1.40;;;;;;;7.03;56.40;100870.44;4984033;28;20203;-72
2023/03/15 11:31:58;;;;;;;2.80;0.70;;;;;;;7.07;55.79;100868.53;4989338;28;20232;-71
2023/03/15 11:34:37;;;;;;;2.97;0.80;;;;;;;7.12;55.60;100870.03;4990511;28;20203;-72
2023/03/15 11:37:13;;;;;;;3.67;0.80;;;;;;;7.10;53.37;100868.38;4995416;28;20207;-71